Viborg, South Dakota
Current Conditions -  °F | °C
As of 4:55 PM on Tuesday 21 Oct 2014 (Local Time) from KYKN Reporting Station
Clear Clear  
Wind Chill: 77°   Ceiling: Unl
Heat Index: 78°   Visibility: 10mi
Dew Point: 45°   Wind: 18mph
Humidity: 32%   Direction: 170°S
Pressure: 29.94"   Gusts: 24mph
Location:  43.17°N, 97.08°W
Report Text: KYKN 212155Z AUTO 17016G21KT 10SM CLR 25/07 A2994 RMK AO1
Loading
Personal Weather Stations






























Interactive Weather Map
Tropical Storm Tracking
New forecast layout! Learn more

10-Day Weather Forecast

Advertisements
Track Severe Weather on mobile